Time;durP1;ratioP1;P1;durP2;ratioP2;P2;SDS_P1;SDS_P2;PMS_P1;PMS_P2;Temp;Humidity;BMP_temperature;BMP_pressure;BME280_temperature;BME280_humidity;BME280_pressure;Samples;Min_cycle;Max_cycle;Signal;HPM_P1;HPM_P2
2021/11/10 05:10:19;;;;;;;5.80;3.85;;;17.60;66.10;;;;;;5069887;28;20114;-38
2021/11/10 05:12:46;;;;;;;5.07;3.67;;;17.60;66.20;;;;;;5084096;28;20024;-38
2021/11/10 05:15:12;;;;;;;5.07;3.65;;;17.60;66.30;;;;;;5084031;28;20040;-38
2021/11/10 05:17:38;;;;;;;5.25;3.97;;;17.50;66.20;;;;;;5065909;28;20078;-38
2021/11/10 05:20:05;;;;;;;5.43;3.95;;;17.50;66.30;;;;;;5083988;28;20432;-38
2021/11/10 05:22:31;;;;;;;6.45;3.90;;;17.50;66.40;;;;;;5083969;28;20032;-38
2021/11/10 05:24:58;;;;;;;4.72;3.83;;;17.50;66.40;;;;;;5083878;28;20474;-38
2021/11/10 05:27:24;;;;;;;5.88;4.13;;;17.50;66.30;;;;;;5083858;28;20036;-38
2021/11/10 05:29:50;;;;;;;4.65;3.78;;;17.50;66.40;;;;;;5082227;28;20454;-38
2021/11/10 05:32:16;;;;;;;5.47;4.18;;;17.40;66.30;;;;;;5099712;28;20024;-38
2021/11/10 05:34:43;;;;;;;4.82;3.83;;;17.40;66.30;;;;;;5103904;28;20032;-38
2021/11/10 05:37:09;;;;;;;5.97;4.10;;;17.40;66.40;;;;;;5101751;28;20080;-38
2021/11/10 05:39:35;;;;;;;5.65;4.07;;;17.40;66.40;;;;;;5082751;28;20319;-38
2021/11/10 05:42:01;;;;;;;5.22;3.88;;;17.40;66.50;;;;;;5083442;28;20017;-38
2021/11/10 05:44:27;;;;;;;4.25;3.80;;;17.40;66.50;;;;;;5083192;28;20051;-38
2021/11/10 05:46:53;;;;;;;5.60;4.38;;;17.40;66.50;;;;;;5083421;28;20139;-38
2021/11/10 05:49:20;;;;;;;6.35;4.40;;;17.30;66.60;;;;;;5083480;28;20032;-38
2021/11/10 05:51:46;;;;;;;5.38;3.83;;;17.30;66.60;;;;;;5081331;28;20549;-39
2021/11/10 05:54:13;;;;;;;6.07;3.97;;;17.30;66.60;;;;;;5083085;28;20032;-38
2021/11/10 05:56:41;;;;;;;5.78;4.03;;;17.30;66.60;;;;;;5081231;28;20029;-38
2021/11/10 05:59:09;;;;;;;4.53;3.72;;;17.30;66.70;;;;;;5083169;28;20039;-38
2021/11/10 06:01:35;;;;;;;;;;;17.30;66.70;;;;;;5083696;28;20056;-38
2021/11/10 06:04:01;;;;;;;4.68;3.70;;;17.30;66.70;;;;;;5082929;28;19911;-38
2021/11/10 06:06:27;;;;;;;6.18;4.47;;;17.20;66.60;;;;;;5083114;28;20101;-38
2021/11/10 06:08:54;;;;;;;4.45;3.65;;;17.20;66.70;;;;;;5091440;28;20048;-38
2021/11/10 06:11:20;;;;;;;6.05;4.10;;;17.20;66.70;;;;;;5101613;28;20059;-38
2021/11/10 06:13:46;;;;;;;5.40;3.78;;;17.20;66.80;;;;;;5103295;28;20542;-38
2021/11/10 06:16:12;;;;;;;5.07;3.83;;;17.20;66.80;;;;;;5103205;28;20024;-38
2021/11/10 06:18:39;;;;;;;4.75;3.95;;;17.20;66.80;;;;;;5103368;28;20526;-38
2021/11/10 06:21:05;;;;;;;5.22;3.85;;;17.10;66.80;;;;;;5099555;28;20028;-38
2021/11/10 06:23:31;;;;;;;5.65;3.95;;;17.10;66.80;;;;;;5103431;28;20020;-38
2021/11/10 06:25:57;;;;;;;5.55;4.05;;;17.10;66.80;;;;;;5103048;28;20020;-37
2021/11/10 06:28:24;;;;;;;5.50;3.90;;;17.10;66.90;;;;;;5103043;28;20059;-38
2021/11/10 06:30:50;;;;;;;5.27;3.90;;;17.10;66.90;;;;;;5103207;28;20032;-38
2021/11/10 06:33:16;;;;;;;5.30;4.22;;;17.10;66.90;;;;;;5103043;28;20020;-38
2021/11/10 06:35:42;;;;;;;5.60;4.18;;;17.10;66.90;;;;;;5102757;28;20036;-38
2021/11/10 06:38:08;;;;;;;4.95;3.63;;;17.00;66.90;;;;;;5102646;28;20035;-38
2021/11/10 06:40:34;;;;;;;5.45;4.05;;;17.00;67.00;;;;;;5098887;28;20035;-38
2021/11/10 06:43:01;;;;;;;5.70;3.90;;;17.00;67.00;;;;;;5102830;28;20027;-38
2021/11/10 06:45:27;;;;;;;4.72;3.90;;;17.00;67.00;;;;;;5101171;28;20054;-38
2021/11/10 06:47:53;;;;;;;5.55;4.00;;;17.00;67.10;;;;;;5102862;28;20054;-38
2021/11/10 06:50:19;;;;;;;5.90;4.10;;;17.00;67.10;;;;;;5102892;28;20257;-38
2021/11/10 06:52:45;;;;;;;5.88;4.30;;;17.00;67.10;;;;;;5102770;28;20047;-38
2021/11/10 06:55:12;;;;;;;7.30;4.22;;;16.90;67.10;;;;;;5101270;28;20036;-38
2021/11/10 06:57:38;;;;;;;5.40;3.90;;;16.90;67.10;;;;;;5102685;28;20054;-38
2021/11/10 07:00:06;;;;;;;5.78;4.00;;;16.90;67.10;;;;;;5102720;28;20028;-38
2021/11/10 07:02:32;;;;;;;7.28;3.67;;;16.90;67.10;;;;;;5102156;28;20044;-38
2021/11/10 07:04:58;;;;;;;4.43;3.60;;;16.90;67.20;;;;;;5102688;28;20024;-38
2021/11/10 07:07:24;;;;;;;5.28;3.90;;;16.90;67.20;;;;;;5102190;28;20028;-38
2021/11/10 07:09:50;;;;;;;6.22;3.28;;;16.90;67.20;;;;;;5102464;28;20079;-38
2021/11/10 07:12:16;;;;;;;5.60;3.53;;;16.80;67.10;;;;;;5102155;28;20020;-38
2021/11/10 07:14:42;;;;;;;5.15;3.92;;;16.80;67.20;;;;;;5102185;28;20036;-38
2021/11/10 07:17:09;;;;;;;5.35;3.40;;;16.80;67.30;;;;;;5102611;28;20024;-38
2021/11/10 07:19:35;;;;;;;5.72;3.90;;;16.80;67.30;;;;;;5102909;28;20039;-38
2021/11/10 07:22:01;;;;;;;4.60;3.97;;;16.80;67.30;;;;;;5102415;28;20042;-38
2021/11/10 07:24:29;;;;;;;4.80;3.80;;;16.70;67.30;;;;;;5102574;28;20028;-38
2021/11/10 07:26:58;;;;;;;4.38;3.55;;;16.70;67.30;;;;;;5102050;28;20020;-38
2021/11/10 07:29:26;;;;;;;4.57;3.47;;;16.80;67.40;;;;;;5102354;28;20024;-38
2021/11/10 07:31:52;;;;;;;4.47;3.72;;;16.70;67.30;;;;;;5102637;28;20047;-38
2021/11/10 07:34:18;;;;;;;4.65;3.67;;;16.70;67.30;;;;;;5102402;28;20106;-37
2021/11/10 07:36:45;;;;;;;5.07;3.80;;;16.70;67.40;;;;;;5100671;28;20004;-38
2021/11/10 07:39:12;;;;;;;5.00;3.85;;;16.70;67.40;;;;;;5102293;28;20556;-38
2021/11/10 07:41:38;;;;;;;6.30;4.20;;;16.70;67.50;;;;;;5102261;28;20032;-38
2021/11/10 07:44:07;;;;;;;5.32;3.75;;;16.70;67.40;;;;;;5102328;28;20117;-38
2021/11/10 07:46:33;;;;;;;6.70;3.88;;;16.70;67.40;;;;;;5102185;28;20024;-38
2021/11/10 07:49:00;;;;;;;5.32;4.20;;;16.60;67.40;;;;;;5102330;28;20061;-38
2021/11/10 07:51:26;;;;;;;;;;;16.60;67.40;;;;;;5102646;28;20032;-38
2021/11/10 07:53:54;;;;;;;6.05;3.85;;;16.60;67.40;;;;;;5101799;28;19910;-38
2021/11/10 07:56:21;;;;;;;5.05;4.00;;;16.60;67.50;;;;;;5101894;28;20032;-38
2021/11/10 07:58:47;;;;;;;4.68;3.60;;;16.60;67.50;;;;;;5102341;28;20032;-38
2021/11/10 08:01:13;;;;;;;5.15;3.47;;;16.50;67.50;;;;;;5102020;28;20115;-38
2021/11/10 08:03:40;;;;;;;4.15;3.50;;;16.50;67.50;;;;;;5104115;28;20054;-38
2021/11/10 08:06:06;;;;;;;4.82;3.78;;;16.50;67.60;;;;;;5105494;28;20024;-38
2021/11/10 08:08:32;;;;;;;5.97;3.70;;;16.50;67.60;;;;;;5098951;28;20139;-38
2021/11/10 08:11:00;;;;;;;5.93;3.95;;;16.50;67.60;;;;;;5079836;28;20116;-37
2021/11/10 08:13:26;;;;;;;4.82;3.35;;;16.50;67.70;;;;;;5085020;28;20029;-38
2021/11/10 08:15:53;;;;;;;3.43;3.07;;;16.50;67.70;;;;;;5050603;28;20021;-38
2021/11/10 08:18:19;;;;;;;4.05;3.22;;;16.50;68.10;;;;;;5063992;28;20031;-38
2021/11/10 08:20:46;;;;;;;5.13;3.30;;;16.60;68.20;;;;;;5085229;28;20033;-38
2021/11/10 08:23:19;;;;;;;4.18;3.25;;;16.60;68.10;;;;;;5067144;28;20089;-38
2021/11/10 08:25:49;;;;;;;4.55;3.42;;;16.60;68.10;;;;;;5066641;28;20385;-38
2021/11/10 08:28:15;;;;;;;4.43;3.38;;;16.60;68.10;;;;;;5084715;28;20032;-38
2021/11/10 08:30:41;;;;;;;4.60;3.55;;;16.50;68.10;;;;;;5084833;28;20096;-38
2021/11/10 08:33:07;;;;;;;5.05;3.70;;;16.50;68.10;;;;;;5084869;28;20032;-38
2021/11/10 08:35:34;;;;;;;3.90;3.20;;;16.50;68.10;;;;;;5085030;28;20025;-38
2021/11/10 08:38:00;;;;;;;4.85;3.40;;;16.50;68.10;;;;;;5084545;28;20040;-38
2021/11/10 08:40:26;;;;;;;4.55;3.40;;;16.50;68.10;;;;;;5078399;28;20021;-37
2021/11/10 08:42:53;;;;;;;4.75;3.17;;;16.40;68.00;;;;;;5084634;28;20059;-38
2021/11/10 08:45:24;;;;;;;5.93;2.90;;;16.40;68.00;;;;;;5084600;28;20031;-38
2021/11/10 08:47:50;;;;;;;3.72;2.92;;;16.50;68.40;;;;;;5084371;28;20113;-38
2021/11/10 08:50:19;;;;;;;3.85;2.90;;;16.60;68.50;;;;;;5084375;28;20025;-38
2021/11/10 08:52:46;;;;;;;3.63;2.83;;;16.60;68.50;;;;;;5084366;28;20024;-38
2021/11/10 08:55:12;;;;;;;4.03;3.33;;;16.60;68.40;;;;;;5084589;28;20040;-38
2021/11/10 08:57:39;;;;;;;3.88;3.30;;;16.60;68.40;;;;;;5083882;28;20024;-38
2021/11/10 09:00:07;;;;;;;4.55;3.22;;;16.50;68.40;;;;;;5084332;28;20060;-38
2021/11/10 09:02:33;;;;;;;3.75;2.90;;;16.50;68.40;;;;;;5084451;28;20036;-38
2021/11/10 09:04:59;;;;;;;4.00;3.15;;;16.50;68.40;;;;;;5084344;28;20033;-38
2021/11/10 09:07:26;;;;;;;3.78;3.20;;;16.40;68.30;;;;;;5082705;28;20080;-38
2021/11/10 09:09:52;;;;;;;4.00;3.35;;;16.50;68.40;;;;;;5101574;28;20048;-38
2021/11/10 09:12:18;;;;;;;4.13;3.03;;;16.40;68.40;;;;;;5103975;28;20028;-38
2021/11/10 09:14:44;;;;;;;3.75;2.63;;;16.50;68.80;;;;;;5103377;28;20115;-38
2021/11/10 09:17:12;;;;;;;3.97;2.88;;;16.60;68.80;;;;;;5104159;28;20027;-38
2021/11/10 09:19:39;;;;;;;4.57;3.08;;;16.60;68.70;;;;;;5104409;28;20028;-38
2021/11/10 09:22:06;;;;;;;4.05;2.95;;;16.60;68.60;;;;;;5104055;28;20027;-38
2021/11/10 09:24:34;;;;;;;3.40;2.83;;;16.60;68.50;;;;;;5104095;28;20092;-38
2021/11/10 09:27:00;;;;;;;4.32;3.00;;;16.50;68.50;;;;;;5104053;28;20028;-40
2021/11/10 09:29:27;;;;;;;3.33;2.83;;;16.50;68.60;;;;;;5103847;28;20058;-38
2021/11/10 09:31:53;;;;;;;3.97;3.05;;;16.50;68.50;;;;;;5104211;28;20032;-38
2021/11/10 09:34:20;;;;;;;3.70;3.00;;;16.50;68.50;;;;;;5104148;28;20039;-38
2021/11/10 09:36:47;;;;;;;3.70;2.80;;;16.50;68.40;;;;;;5103392;28;20020;-38
2021/11/10 09:39:15;;;;;;;4.03;2.80;;;16.50;68.90;;;;;;5102301;28;20036;-38
2021/11/10 09:41:41;;;;;;;3.97;2.95;;;16.60;69.00;;;;;;5102405;28;20027;-38
2021/11/10 09:44:08;;;;;;;4.30;3.13;;;16.60;68.80;;;;;;5103755;28;20028;-38
2021/11/10 09:46:34;;;;;;;3.08;2.58;;;16.60;68.70;;;;;;5102442;28;20043;-38
2021/11/10 09:49:00;;;;;;;3.22;2.72;;;16.60;68.60;;;;;;5102187;28;20036;-38
2021/11/10 09:51:27;;;;;;;4.05;2.78;;;16.60;68.70;;;;;;5102617;28;20028;-38
2021/11/10 09:53:53;;;;;;;4.20;2.80;;;16.50;68.60;;;;;;5102215;28;20057;-38
2021/11/10 09:56:25;;;;;;;4.03;3.10;;;16.50;68.60;;;;;;5103431;28;20020;-38
2021/11/10 09:58:51;;;;;;;4.40;3.00;;;16.50;68.60;;;;;;5103337;28;20024;-38
2021/11/10 10:01:18;;;;;;;4.00;3.10;;;16.50;68.60;;;;;;5103199;28;20484;-38
2021/11/10 10:03:46;;;;;;;4.50;2.63;;;16.40;68.60;;;;;;5102088;28;20028;-38
2021/11/10 10:06:15;;;;;;;3.83;3.00;;;16.40;68.50;;;;;;5085828;28;20040;-38
2021/11/10 10:08:46;;;;;;;5.28;2.92;;;16.40;68.50;;;;;;5102738;28;20051;-38
2021/11/10 10:11:12;;;;;;;4.47;3.17;;;16.50;68.80;;;;;;5103411;28;20029;-38
2021/11/10 10:13:39;;;;;;;3.00;2.60;;;16.60;69.20;;;;;;5101694;28;20024;-38
2021/11/10 10:16:06;;;;;;;3.00;2.43;;;16.60;68.90;;;;;;5101006;28;20528;-38
2021/11/10 10:18:32;;;;;;;4.15;2.58;;;16.60;68.80;;;;;;5102931;28;20265;-38
2021/11/10 10:21:06;;;;;;;3.58;2.88;;;16.60;68.70;;;;;;5103230;28;20550;-38
2021/11/10 10:23:34;;;;;;;3.83;2.90;;;16.60;68.70;;;;;;5103186;28;20051;-38
2021/11/10 10:26:14;;;;;;;4.13;3.00;;;16.50;68.70;;;;;;5102134;28;20028;-38
2021/11/10 10:28:42;;;;;;;5.05;3.00;;;16.50;68.70;;;;;;5102564;28;20044;-38
2021/11/10 10:31:14;;;;;;;2.90;2.33;;;16.50;68.70;;;;;;5102897;28;20038;-38
2021/11/10 10:33:42;;;;;;;3.90;2.80;;;16.50;68.70;;;;;;5103292;28;20040;-38
2021/11/10 10:36:09;;;;;;;4.93;2.90;;;16.40;68.60;;;;;;5102902;28;20028;-38
2021/11/10 10:38:55;;;;;;;3.72;2.78;;;16.40;68.60;;;;;;5102535;28;20028;-38
2021/11/10 10:41:27;;;;;;;3.50;2.63;;;16.50;69.00;;;;;;5102881;28;20116;-38
2021/11/10 10:43:55;;;;;;;2.65;2.38;;;16.60;69.10;;;;;;5102689;28;20673;-38
2021/11/10 10:46:25;;;;;;;;;;;16.60;68.90;;;;;;5103425;28;20035;-38
2021/11/10 10:48:51;;;;;;;4.13;2.50;;;16.60;68.70;;;;;;5102729;28;19915;-38
2021/11/10 10:51:18;;;;;;;4.05;2.65;;;16.60;68.70;;;;;;5102908;28;20024;-38
2021/11/10 10:53:46;;;;;;;3.08;2.67;;;16.50;68.60;;;;;;5102639;28;20043;-38
2021/11/10 10:56:18;;;;;;;3.92;2.78;;;16.50;68.70;;;;;;5102736;28;20040;-38
2021/11/10 10:58:44;;;;;;;3.63;2.72;;;16.50;68.70;;;;;;5102345;28;20096;-38
2021/11/10 11:01:31;;;;;;;2.85;2.35;;;16.50;68.70;;;;;;5102647;28;20031;-38
2021/11/10 11:04:31;;;;;;;3.67;2.85;;;16.40;68.60;;;;;;5101569;28;20097;-38
2021/11/10 11:07:02;;;;;;;4.07;2.70;;;16.50;69.00;;;;;;5019806;28;20041;-38
2021/11/10 11:09:41;;;;;;;4.47;2.75;;;16.50;69.10;;;;;;5018437;28;20073;-38
2021/11/10 11:12:17;;;;;;;2.97;2.42;;;16.60;69.20;;;;;;5019769;28;20022;-38
2021/11/10 11:15:01;;;;;;;3.40;2.92;;;16.70;68.90;;;;;;5019685;28;20036;-38
2021/11/10 11:17:29;;;;;;;3.33;2.50;;;16.60;68.70;;;;;;5005352;28;20069;-38
2021/11/10 11:20:01;;;;;;;3.13;2.20;;;16.60;68.70;;;;;;5003142;28;20101;-38
2021/11/10 11:22:32;;;;;;;3.88;2.85;;;16.60;68.80;;;;;;5019704;28;20045;-39
2021/11/10 11:25:20;;;;;;;3.42;2.63;;;16.50;68.80;;;;;;5019944;28;20025;-38
2021/11/10 11:27:58;;;;;;;4.30;3.05;;;16.50;68.80;;;;;;5005687;28;20100;-38
2021/11/10 11:30:28;;;;;;;3.30;2.67;;;16.50;68.70;;;;;;5019022;28;20073;-38
2021/11/10 11:32:55;;;;;;;3.97;2.65;;;16.40;68.70;;;;;;5019670;28;20040;-38
2021/11/10 11:35:32;;;;;;;4.18;2.70;;;16.40;68.80;;;;;;5019900;28;20052;-38
2021/11/10 11:38:03;;;;;;;3.28;2.72;;;16.60;69.20;;;;;;5004889;28;20029;-38
2021/11/10 11:40:32;;;;;;;3.38;2.60;;;16.60;69.10;;;;;;5022486;28;20053;-38
2021/11/10 11:42:58;;;;;;;3.83;2.40;;;16.60;68.80;;;;;;5079717;28;20106;-38
2021/11/10 11:45:26;;;;;;;4.03;2.70;;;16.60;68.70;;;;;;5106193;28;20047;-38
2021/11/10 11:47:59;;;;;;;3.33;2.60;;;16.60;68.80;;;;;;5104453;28;20043;-38
2021/11/10 11:50:25;;;;;;;3.10;2.47;;;16.60;68.80;;;;;;5104249;28;20032;-38
2021/11/10 11:52:52;;;;;;;3.17;2.63;;;16.50;68.70;;;;;;5093020;28;20020;-38
2021/11/10 11:55:48;;;;;;;3.17;2.78;;;16.50;68.70;;;;;;5105303;28;20054;-38
2021/11/10 11:58:16;;;;;;;2.95;2.60;;;16.50;68.60;;;;;;5104688;28;20035;-38
2021/11/10 12:00:45;;;;;;;3.92;2.78;;;16.50;68.80;;;;;;5104428;28;20056;-38
2021/11/10 12:03:28;;;;;;;3.35;2.38;;;16.60;69.20;;;;;;5105835;28;20046;-38
2021/11/10 12:06:04;;;;;;;3.45;2.90;;;16.70;69.10;;;;;;5105833;28;20024;-38
2021/11/10 12:08:43;;;;;;;5.32;2.70;;;16.70;68.90;;;;;;5100785;28;20052;-37
2021/11/10 12:11:28;;;;;;;3.50;2.65;;;16.60;68.70;;;;;;5104611;28;20028;-38
2021/11/10 12:14:18;;;;;;;2.90;2.47;;;16.60;68.70;;;;;;5105573;28;20039;-38
2021/11/10 12:16:56;;;;;;;3.53;2.78;;;16.60;68.70;;;;;;5105613;28;20102;-39
2021/11/10 12:19:37;;;;;;;2.72;2.25;;;16.50;68.70;;;;;;5105347;28;20031;-38
2021/11/10 12:22:15;;;;;;;2.95;2.30;;;16.50;68.70;;;;;;5105289;28;20036;-38
2021/11/10 12:24:53;;;;;;;3.63;2.75;;;16.50;68.60;;;;;;5105596;28;20505;-38
2021/11/10 12:27:31;;;;;;;4.38;2.88;;;16.50;68.90;;;;;;5104990;28;20069;-38
2021/11/10 12:30:00;;;;;;;4.00;2.50;;;16.60;69.20;;;;;;5105114;28;20024;-38
2021/11/10 12:32:43;;;;;;;3.00;2.50;;;16.70;69.00;;;;;;5105118;28;20028;-38
2021/11/10 12:35:18;;;;;;;4.43;2.60;;;16.70;68.80;;;;;;5105384;28;20425;-38
2021/11/10 12:37:48;;;;;;;3.42;2.70;;;16.60;68.70;;;;;;5105068;28;20554;-38
2021/11/10 12:40:16;;;;;;;3.83;2.85;;;16.60;68.70;;;;;;5104756;28;20090;-38
2021/11/10 12:42:56;;;;;;;3.03;2.30;;;16.60;68.80;;;;;;5104303;28;20043;-38
2021/11/10 12:45:24;;;;;;;4.07;2.65;;;16.50;68.70;;;;;;5105069;28;20028;-38
2021/11/10 12:47:51;;;;;;;3.88;2.65;;;16.50;68.60;;;;;;5104745;28;20562;-38
2021/11/10 12:50:21;;;;;;;3.47;2.38;;;16.50;68.70;;;;;;5102975;28;20055;-38
2021/11/10 12:52:47;;;;;;;3.38;2.25;;;16.60;69.10;;;;;;5104865;28;20054;-38
2021/11/10 12:55:16;;;;;;;4.70;2.42;;;16.60;69.00;;;;;;5104777;28;20020;-38
2021/11/10 12:57:42;;;;;;;3.65;2.25;;;16.70;68.80;;;;;;5104565;28;20078;-38
2021/11/10 13:00:13;;;;;;;3.13;2.33;;;16.60;68.70;;;;;;5102936;28;20409;-38
2021/11/10 13:02:40;;;;;;;3.00;2.50;;;16.60;68.80;;;;;;5103402;28;20024;-38
2021/11/10 13:05:08;;;;;;;3.63;2.55;;;16.60;68.70;;;;;;5103259;28;20078;-38
2021/11/10 13:07:36;;;;;;;4.32;2.83;;;16.60;68.60;;;;;;5104188;28;20155;-38
2021/11/10 13:10:11;;;;;;;3.03;2.30;;;16.50;68.60;;;;;;5102897;28;20051;-38
2021/11/10 13:12:41;;;;;;;3.53;2.67;;;16.50;68.60;;;;;;5103798;28;20092;-38
2021/11/10 13:15:08;;;;;;;2.97;2.38;;;16.50;68.90;;;;;;5104465;28;20465;-38
2021/11/10 13:17:35;;;;;;;3.33;2.30;;;16.60;69.10;;;;;;5104420;28;20133;-38
2021/11/10 13:20:01;;;;;;;;;;;16.70;68.90;;;;;;5104821;28;20058;-38
2021/11/10 13:22:27;;;;;;;3.20;2.42;;;16.70;68.80;;;;;;5104007;28;19911;-38
2021/11/10 13:25:11;;;;;;;3.25;2.33;;;16.60;68.70;;;;;;5104268;28;20027;-38
2021/11/10 13:27:43;;;;;;;3.17;2.60;;;16.60;68.70;;;;;;5102511;28;20031;-38
2021/11/10 13:30:11;;;;;;;3.97;2.72;;;16.60;68.70;;;;;;5104284;28;20566;-38
2021/11/10 13:32:44;;;;;;;2.90;2.22;;;16.60;68.70;;;;;;5103994;28;20016;-38
2021/11/10 13:35:10;;;;;;;3.75;2.55;;;16.50;68.60;;;;;;5104170;28;20074;-38
2021/11/10 13:37:49;;;;;;;3.75;2.50;;;16.50;68.60;;;;;;5103848;28;20020;-38
2021/11/10 13:40:17;;;;;;;3.47;2.50;;;16.60;69.00;;;;;;5103860;28;20112;-38
2021/11/10 13:42:48;;;;;;;4.95;2.63;;;16.70;69.10;;;;;;5103290;28;20032;-38
2021/11/10 13:45:15;;;;;;;3.38;2.50;;;16.70;68.90;;;;;;5103477;28;20039;-38
2021/11/10 13:48:00;;;;;;;3.47;2.42;;;16.70;68.80;;;;;;5103358;28;20043;-38
2021/11/10 13:50:27;;;;;;;3.58;2.53;;;16.70;68.80;;;;;;5103726;28;20028;-38
2021/11/10 13:53:00;;;;;;;3.83;2.58;;;16.60;68.70;;;;;;5103394;28;20805;-38
2021/11/10 13:55:26;;;;;;;2.78;2.50;;;16.60;68.70;;;;;;5102922;28;20020;-38
2021/11/10 13:57:53;;;;;;;3.08;2.22;;;16.60;68.70;;;;;;5103761;28;20042;-38
2021/11/10 14:00:19;;;;;;;3.38;2.50;;;16.60;68.60;;;;;;5102860;28;20035;-38
2021/11/10 14:02:46;;;;;;;3.88;2.55;;;16.60;69.00;;;;;;5103304;28;20032;-38
2021/11/10 14:05:14;;;;;;;3.50;2.50;;;16.70;69.10;;;;;;5103442;28;20125;-38
2021/11/10 14:07:41;;;;;;;3.40;2.70;;;16.70;69.10;;;;;;5102428;28;20036;-38
2021/11/10 14:10:10;;;;;;;3.90;3.00;;;16.70;68.80;;;;;;5103118;28;20048;-38
2021/11/10 14:12:44;;;;;;;3.72;2.65;;;16.70;68.80;;;;;;5100791;28;20035;-38
2021/11/10 14:15:17;;;;;;;3.13;2.33;;;16.70;68.80;;;;;;5103234;28;20044;-38
2021/11/10 14:18:07;;;;;;;3.53;2.40;;;16.70;68.90;;;;;;5103281;28;20673;-37
2021/11/10 14:20:41;;;;;;;3.20;2.38;;;16.60;69.50;;;;;;5103349;28;20036;-38
2021/11/10 14:23:12;;;;;;;2.55;2.35;;;16.60;68.70;;;;;;5102461;28;20020;-38
2021/11/10 14:25:49;;;;;;;3.38;2.53;;;16.60;68.70;;;;;;5103171;28;20069;-38
2021/11/10 14:28:20;;;;;;;3.80;2.53;;;16.60;68.80;;;;;;5102775;28;20035;-38
2021/11/10 14:30:59;;;;;;;3.92;2.47;;;16.70;69.20;;;;;;5103014;28;20024;-38
2021/11/10 14:33:27;;;;;;;3.03;2.22;;;16.70;68.90;;;;;;5082339;28;20036;-38
2021/11/10 14:36:01;;;;;;;3.95;2.42;;;16.80;68.90;;;;;;5082833;28;20115;-38
2021/11/10 14:38:37;;;;;;;2.90;2.53;;;16.70;68.80;;;;;;5093143;28;20081;-38
2021/11/10 14:41:07;;;;;;;3.33;2.70;;;16.70;68.80;;;;;;5102423;28;20443;-38
2021/11/10 14:43:47;;;;;;;3.42;2.40;;;16.70;68.80;;;;;;5102614;28;20024;-38
2021/11/10 14:46:19;;;;;;;4.35;2.55;;;16.70;68.80;;;;;;5102942;28;20028;-38
2021/11/10 14:48:48;;;;;;;3.20;2.45;;;16.70;68.80;;;;;;5102886;28;20068;-38
2021/11/10 14:51:22;;;;;;;3.50;2.60;;;16.60;68.60;;;;;;5101377;28;20092;-38
2021/11/10 14:54:32;;;;;;;3.10;2.53;;;16.60;68.60;;;;;;5102460;28;20036;-38
2021/11/10 14:56:59;;;;;;;4.60;3.00;;;16.60;68.60;;;;;;5019829;28;20033;-38
2021/11/10 14:59:36;;;;;;;3.65;2.53;;;16.60;68.50;;;;;;5020042;28;20114;-37
2021/11/10 15:02:05;;;;;;;2.90;2.43;;;16.60;68.50;;;;;;5019812;28;20029;-38
2021/11/10 15:04:31;;;;;;;3.70;2.22;;;16.60;68.70;;;;;;5020061;28;20692;-38
2021/11/10 15:07:07;;;;;;;2.78;2.35;;;16.70;69.10;;;;;;5019995;28;20040;-40
2021/11/10 15:09:35;;;;;;;4.50;2.60;;;16.80;69.00;;;;;;5019695;28;20053;-38
2021/11/10 15:12:01;;;;;;;3.58;2.35;;;16.80;68.80;;;;;;5020828;28;20033;-38
2021/11/10 15:14:39;;;;;;;2.65;2.25;;;16.80;68.80;;;;;;5040726;28;20056;-38
2021/11/10 15:17:23;;;;;;;3.22;2.30;;;16.70;68.60;;;;;;5043671;28;20033;-38
2021/11/10 15:19:49;;;;;;;3.33;2.53;;;16.70;68.70;;;;;;5043796;28;20044;-38
2021/11/10 15:22:22;;;;;;;3.50;2.40;;;16.70;68.60;;;;;;5043362;28;20469;-37
2021/11/10 15:24:48;;;;;;;2.97;2.17;;;16.70;68.60;;;;;;5043242;28;20026;-38
2021/11/10 15:27:16;;;;;;;3.00;2.55;;;16.70;68.60;;;;;;5043509;28;20134;-37
2021/11/10 15:29:42;;;;;;;3.97;2.60;;;16.70;68.50;;;;;;5043453;28;20945;-38
2021/11/10 15:32:08;;;;;;;3.60;2.50;;;16.70;68.50;;;;;;5068476;28;20048;-38
2021/11/10 15:34:35;;;;;;;3.22;2.42;;;16.70;68.40;;;;;;5105551;28;20027;-37
2021/11/10 15:37:02;;;;;;;3.25;2.55;;;16.70;68.40;;;;;;5106325;28;20076;-37
2021/11/10 15:39:29;;;;;;;3.95;2.90;;;16.70;68.40;;;;;;5105664;28;20020;-37
2021/11/10 15:41:55;;;;;;;3.35;2.35;;;16.70;68.40;;;;;;5105668;28;20516;-37
2021/11/10 15:44:22;;;;;;;3.57;2.73;;;16.70;68.30;;;;;;5105801;28;20739;-37
2021/11/10 15:46:48;;;;;;;3.58;2.78;;;16.70;68.30;;;;;;5106192;28;20036;-37
2021/11/10 15:49:14;;;;;;;2.70;2.13;;;16.70;68.30;;;;;;5106012;28;20051;-38
2021/11/10 15:51:42;;;;;;;2.88;2.45;;;16.70;68.30;;;;;;5105824;28;20047;-37
2021/11/10 15:54:08;;;;;;;2.67;2.22;;;16.70;68.30;;;;;;5105762;28;20028;-37
2021/11/10 15:56:36;;;;;;;4.18;2.45;;;16.70;68.30;;;;;;5105241;28;20051;-38
2021/11/10 15:59:03;;;;;;;4.00;2.33;;;16.70;68.30;;;;;;5105742;28;20453;-38
2021/11/10 16:01:29;;;;;;;4.03;2.47;;;16.70;68.30;;;;;;5104591;28;20473;-42
2021/11/10 16:03:58;;;;;;;3.38;2.55;;;16.70;68.20;;;;;;5105498;28;20024;-37
2021/11/10 16:06:25;;;;;;;3.70;2.50;;;16.80;68.40;;;;;;5105898;28;20040;-38
2021/11/10 16:08:51;;;;;;;2.95;2.42;;;16.70;68.40;;;;;;5103531;28;20059;-38
2021/11/10 16:11:17;;;;;;;3.33;2.55;;;16.80;68.40;;;;;;5105195;28;20576;-37
2021/11/10 16:13:43;;;;;;;3.33;2.55;;;16.80;68.50;;;;;;5105470;28;20040;-37
2021/11/10 16:16:10;;;;;;;3.33;2.75;;;16.80;68.50;;;;;;5105460;28;20031;-38
2021/11/10 16:18:36;;;;;;;3.70;2.78;;;16.80;68.50;;;;;;5105534;28;20047;-37
2021/11/10 16:21:03;;;;;;;2.47;1.90;;;16.80;68.50;;;;;;5105622;28;20032;-38
2021/11/10 16:23:30;;;;;;;3.03;2.58;;;16.80;68.50;;;;;;5104460;28;20067;-38
2021/11/10 16:25:59;;;;;;;3.05;2.45;;;16.90;68.60;;;;;;5105219;28;20047;-37
2021/11/10 16:28:30;;;;;;;3.42;2.45;;;16.90;68.60;;;;;;5105230;28;20036;-38
2021/11/10 16:31:21;;;;;;;3.58;2.78;;;16.90;69.20;;;;;;5105179;28;20027;-37
2021/11/10 16:33:42;;;;;;;3.55;2.15;;;16.90;68.70;;;;;;5104789;28;20036;-37
2021/11/10 16:36:14;;;;;;;3.13;2.50;;;16.90;68.80;;;;;;5105001;28;20115;-37
2021/11/10 16:38:40;;;;;;;3.38;2.53;;;16.90;68.80;;;;;;5104665;28;20047;-37
2021/11/10 16:41:07;;;;;;;4.13;3.05;;;16.90;69.70;;;;;;5104341;28;20050;-37
2021/11/10 16:43:33;;;;;;;2.78;2.33;;;17.00;69.00;;;;;;5104894;28;20024;-37
2021/11/10 16:46:01;;;;;;;3.22;2.50;;;17.00;69.10;;;;;;5105000;28;20020;-37
2021/11/10 16:48:27;;;;;;;2.95;2.50;;;17.00;69.40;;;;;;5104849;28;20920;-37
2021/11/10 16:50:54;;;;;;;2.43;2.23;;;17.10;69.30;;;;;;5104927;28;20500;-38
2021/11/10 16:53:21;;;;;;;3.17;2.63;;;17.10;69.40;;;;;;5104870;28;20273;-37
2021/11/10 16:55:49;;;;;;;2.85;2.22;;;17.10;69.40;;;;;;5104026;28;20508;-37
2021/11/10 16:58:32;;;;;;;3.47;2.40;;;17.10;69.50;;;;;;5103353;28;20032;-37
2021/11/10 17:00:59;;;;;;;3.50;2.33;;;17.10;69.50;;;;;;5104723;28;20044;-37
2021/11/10 17:03:25;;;;;;;3.78;2.40;;;17.20;69.50;;;;;;5104670;28;20106;-37
2021/11/10 17:05:53;;;;;;;3.30;2.70;;;17.20;69.60;;;;;;5104340;28;20031;-37
2021/11/10 17:08:21;;;;;;;3.63;2.70;;;17.20;69.60;;;;;;5102675;28;20512;-38
2021/11/10 17:10:48;;;;;;;3.10;2.40;;;17.20;69.60;;;;;;5103742;28;20020;-37
2021/11/10 17:13:17;;;;;;;2.65;2.30;;;17.20;69.70;;;;;;5104692;28;20445;-37
2021/11/10 17:15:44;;;;;;;3.30;2.67;;;17.30;70.00;;;;;;5104189;28;20024;-37
2021/11/10 17:18:11;;;;;;;2.92;2.63;;;17.30;70.10;;;;;;5104550;28;20036;-38
2021/11/10 17:20:37;;;;;;;2.95;2.58;;;17.30;70.30;;;;;;5104535;28;20465;-37
2021/11/10 17:23:03;;;;;;;3.40;2.67;;;17.30;70.20;;;;;;5104140;28;20032;-37
2021/11/10 17:25:30;;;;;;;2.55;2.30;;;17.40;70.40;;;;;;5103607;28;20036;-37
2021/11/10 17:27:56;;;;;;;3.15;2.58;;;17.40;70.40;;;;;;5103919;28;20032;-37
2021/11/10 17:30:22;;;;;;;3.95;2.90;;;17.40;70.20;;;;;;5104260;28;20250;-37
2021/11/10 17:32:48;;;;;;;3.03;2.58;;;17.40;70.40;;;;;;5103989;28;20024;-37
2021/11/10 17:35:14;;;;;;;3.58;2.90;;;17.50;70.30;;;;;;5102997;28;20024;-37
2021/11/10 17:37:41;;;;;;;3.90;2.83;;;17.50;70.50;;;;;;5103679;28;20039;-37
2021/11/10 17:40:09;;;;;;;3.35;2.40;;;17.50;70.50;;;;;;5103954;28;20027;-38
2021/11/10 17:42:35;;;;;;;3.63;2.50;;;17.50;70.60;;;;;;5103765;28;20052;-37
2021/11/10 17:45:03;;;;;;;3.30;2.50;;;17.60;70.70;;;;;;5103604;28;20109;-37
2021/11/10 17:47:29;;;;;;;3.38;2.35;;;17.50;70.60;;;;;;5103707;28;20043;-37
2021/11/10 17:49:55;;;;;;;2.85;2.55;;;17.60;70.70;;;;;;5103542;28;20027;-37
2021/11/10 17:52:21;;;;;;;2.90;2.60;;;17.60;70.70;;;;;;5103705;28;20119;-37
2021/11/10 17:54:48;;;;;;;3.10;2.58;;;17.60;70.70;;;;;;5103378;28;20027;-37
2021/11/10 17:57:16;;;;;;;2.08;1.88;;;17.70;70.80;;;;;;5103661;28;20031;-37
2021/11/10 17:59:43;;;;;;;3.15;2.72;;;17.70;70.80;;;;;;5103631;28;20024;-37
2021/11/10 18:02:09;;;;;;;3.38;2.88;;;17.70;70.80;;;;;;5103466;28;20031;-37
2021/11/10 18:04:35;;;;;;;3.00;2.50;;;17.70;71.00;;;;;;5103258;28;20042;-37
2021/11/10 18:07:12;;;;;;;2.45;2.20;;;17.80;71.20;;;;;;5113605;27;20409;-37